< < Back
Terminal Aerodrome Forecast


Current Version              Previous Versions:   1  2  3  4  5  6  7  8  9  

Terminal Aerodrome Forecast

329
FTUS42 KFFC 230526
TAFFTY
TAF
KFTY 230526Z 2306/2406 00000KT P6SM SCT250
     FM231500 25004KT P6SM SCT035
     FM231700 28004KT P6SM VCSH BKN050 PROB30 2321/2401 4SM TSRA
      BKN035CB
     FM240100 00000KT P6SM SCT060 BKN250=

Latest METAR

781
SAUS70 KWBC 231700 RRB
MTRFTY
METAR KFTY 231653Z 17005KT 10SM CLR 32/22 A3003 RMK AO2 LTG DSNT NW
SLP159 T03170217


USA.gov is the U.S. government's official web portal to all federal, state and local government web resources and services.